createdAt,value
2023-04-18T00:00:49.600Z,3.70
2023-04-18T00:06:12.978Z,3.60
2023-04-18T00:11:35.178Z,3.00
2023-04-18T00:16:57.445Z,3.30
2023-04-18T00:22:22.632Z,3.30
2023-04-18T00:27:44.363Z,3.80
2023-04-18T00:33:06.559Z,3.70
2023-04-18T00:38:28.626Z,4.20
2023-04-18T00:43:50.380Z,4.60
2023-04-18T00:49:12.578Z,4.30
2023-04-18T00:54:35.616Z,4.50
2023-04-18T00:59:57.644Z,4.10
2023-04-18T01:05:21.395Z,3.80
2023-04-18T01:10:45.916Z,3.50
2023-04-18T01:16:10.720Z,3.70
2023-04-18T01:21:37.457Z,3.20
2023-04-18T01:26:59.939Z,3.40
2023-04-18T01:32:22.352Z,3.70
2023-04-18T01:37:44.407Z,3.30
2023-04-18T01:43:06.434Z,3.30
2023-04-18T01:48:28.382Z,3.20
2023-04-18T01:53:50.785Z,3.20
2023-04-18T01:59:12.412Z,3.20
2023-04-18T02:04:34.146Z,3.10
2023-04-18T02:09:56.272Z,3.30
2023-04-18T02:15:18.100Z,3.40
2023-04-18T02:20:40.236Z,3.80
2023-04-18T02:26:03.771Z,3.30
2023-04-18T02:31:25.620Z,2.90
2023-04-18T02:36:47.324Z,3.10
2023-04-18T02:42:09.160Z,2.90
2023-04-18T02:47:35.423Z,3.20
2023-04-18T02:53:05.557Z,2.80
2023-04-18T02:58:37.332Z,2.70
2023-04-18T03:04:19.248Z,2.50
2023-04-18T03:09:52.386Z,3.00
2023-04-18T03:15:18.782Z,2.90
2023-04-18T03:20:41.469Z,3.30
2023-04-18T03:26:06.002Z,3.70
2023-04-18T03:31:31.091Z,3.80
2023-04-18T03:36:53.188Z,4.50
2023-04-18T03:42:14.809Z,4.00
2023-04-18T03:47:38.056Z,5.10
2023-04-18T03:53:00.966Z,5.30
2023-04-18T03:58:24.430Z,5.20
2023-04-18T04:03:47.944Z,5.50
2023-04-18T04:09:10.206Z,5.80
2023-04-18T04:14:32.709Z,6.40
2023-04-18T04:19:55.325Z,7.10
2023-04-18T04:25:19.512Z,7.30
2023-04-18T04:30:41.898Z,7.40
2023-04-18T04:36:04.033Z,8.90
2023-04-18T04:41:27.968Z,9.20
2023-04-18T04:46:50.001Z,8.80
2023-04-18T04:52:15.444Z,10.50
2023-04-18T04:57:37.895Z,10.80
2023-04-18T05:03:09.108Z,10.60
2023-04-18T05:08:31.032Z,11.20
2023-04-18T05:13:53.086Z,10.20
2023-04-18T05:19:16.420Z,10.90
2023-04-18T05:24:38.411Z,10.80
2023-04-18T05:30:00.104Z,11.10
2023-04-18T05:35:21.971Z,10.10
2023-04-18T05:40:44.240Z,10.70
2023-04-18T05:46:06.583Z,10.50
2023-04-18T05:51:28.829Z,11.00
2023-04-18T05:56:50.336Z,12.10
2023-04-18T06:02:13.768Z,12.30
2023-04-18T06:07:35.999Z,12.50
2023-04-18T06:12:57.922Z,11.80
2023-04-18T06:18:22.061Z,11.60
2023-04-18T06:23:43.900Z,10.70
2023-04-18T06:29:05.628Z,9.60
2023-04-18T06:34:27.836Z,10.30
2023-04-18T06:39:49.379Z,9.90
2023-04-18T06:45:12.297Z,9.60
2023-04-18T06:50:35.230Z,10.90
2023-04-18T06:55:58.425Z,9.90
2023-04-18T07:01:21.193Z,8.80
2023-04-18T07:06:43.017Z,7.90
2023-04-18T07:12:05.265Z,9.50
2023-04-18T07:17:27.260Z,7.40
2023-04-18T07:22:49.028Z,8.40
2023-04-18T07:28:10.749Z,8.60
2023-04-18T07:33:34.062Z,8.10
2023-04-18T07:38:56.637Z,9.50
2023-04-18T07:44:18.802Z,8.20
2023-04-18T07:49:40.682Z,8.00
2023-04-18T07:55:02.512Z,7.50
2023-04-18T08:00:24.589Z,7.40
2023-04-18T08:05:46.241Z,8.10
2023-04-18T08:11:08.094Z,9.00
2023-04-18T08:16:30.116Z,7.60
2023-04-18T08:21:52.260Z,7.50
2023-04-18T08:27:14.190Z,7.50
2023-04-18T08:32:36.940Z,8.10
2023-04-18T08:37:58.947Z,8.00
2023-04-18T08:43:21.278Z,8.80
2023-04-18T08:48:43.208Z,8.30
2023-04-18T08:54:06.408Z,7.90
2023-04-18T08:59:28.174Z,7.70
2023-04-18T09:04:53.809Z,7.90
2023-04-18T09:10:46.742Z,7.00
2023-04-18T09:16:09.314Z,7.10
2023-04-18T09:21:32.902Z,7.50
2023-04-18T09:26:57.389Z,7.00
2023-04-18T09:32:20.926Z,7.00
2023-04-18T09:37:51.368Z,6.80
2023-04-18T09:43:20.703Z,6.50
2023-04-18T09:48:42.849Z,6.90
2023-04-18T09:54:07.783Z,6.40
2023-04-18T09:59:47.852Z,6.70
2023-04-18T10:05:09.833Z,6.20
2023-04-18T10:10:32.751Z,6.80
2023-04-18T10:15:55.198Z,6.10
2023-04-18T10:21:17.488Z,5.40
2023-04-18T10:26:47.284Z,5.70
2023-04-18T10:32:09.394Z,5.60
2023-04-18T10:37:35.582Z,5.60
2023-04-18T10:42:58.354Z,5.60
2023-04-18T10:48:31.436Z,4.90
2023-04-18T10:53:57.268Z,4.20
2023-04-18T10:59:22.838Z,4.50
2023-04-18T11:04:52.471Z,4.70
2023-04-18T11:10:17.316Z,4.50
2023-04-18T11:15:40.236Z,4.30
2023-04-18T11:21:04.079Z,5.00
2023-04-18T11:26:27.597Z,5.00
2023-04-18T11:31:54.581Z,5.30
2023-04-18T11:37:19.096Z,4.80
2023-04-18T11:42:41.696Z,5.00
2023-04-18T11:48:03.986Z,4.90
2023-04-18T11:53:33.858Z,4.50
2023-04-18T11:58:56.542Z,4.90
2023-04-18T12:04:19.253Z,4.60
2023-04-18T12:09:42.299Z,4.70
2023-04-18T12:15:08.135Z,4.70
2023-04-18T12:20:35.442Z,4.20
2023-04-18T12:26:07.405Z,5.00
2023-04-18T12:31:29.226Z,4.60
2023-04-18T12:36:54.010Z,5.20
2023-04-18T12:42:16.124Z,6.20
2023-04-18T12:47:39.406Z,3.80
2023-04-18T12:53:01.853Z,3.30
2023-04-18T12:58:23.725Z,3.70
2023-04-18T13:03:53.484Z,4.30
2023-04-18T13:09:22.238Z,5.30
2023-04-18T13:14:44.311Z,4.40
2023-04-18T13:20:13.267Z,3.80
2023-04-18T13:25:35.058Z,4.90
2023-04-18T13:30:57.171Z,4.10
2023-04-18T13:36:18.998Z,5.60
2023-04-18T13:41:41.235Z,6.70
2023-04-18T13:47:05.196Z,6.10
2023-04-18T13:52:26.902Z,5.00
2023-04-18T13:57:48.712Z,5.60
2023-04-18T14:03:11.047Z,4.10
2023-04-18T14:08:33.042Z,4.20
2023-04-18T14:13:54.923Z,4.20
2023-04-18T14:19:18.146Z,4.10
2023-04-18T14:24:40.193Z,4.90
2023-04-18T14:30:02.211Z,6.70
2023-04-18T14:35:24.309Z,4.10
2023-04-18T14:40:46.986Z,4.40
2023-04-18T14:46:16.806Z,5.50
2023-04-18T14:51:39.055Z,5.70
2023-04-18T14:57:01.686Z,5.10
2023-04-18T15:02:23.582Z,4.10
2023-04-18T15:07:45.844Z,4.70
2023-04-18T15:13:11.665Z,5.50
2023-04-18T15:18:34.036Z,5.90
2023-04-18T15:23:55.784Z,5.10
2023-04-18T15:29:17.485Z,5.60
2023-04-18T15:34:39.052Z,5.60
2023-04-18T15:40:00.839Z,6.60
2023-04-18T15:45:22.375Z,6.20
2023-04-18T15:50:51.417Z,6.60
2023-04-18T15:56:14.073Z,5.30
2023-04-18T16:01:36.705Z,6.10
2023-04-18T16:06:58.838Z,5.70
2023-04-18T16:12:20.638Z,5.60
2023-04-18T16:17:42.671Z,16.00
2023-04-18T16:23:04.866Z,9.90
2023-04-18T16:28:27.025Z,10.50
2023-04-18T16:33:48.984Z,12.20
2023-04-18T16:39:11.090Z,15.30
2023-04-18T16:44:33.395Z,10.90
2023-04-18T16:49:55.652Z,9.00
2023-04-18T16:55:17.580Z,10.80
2023-04-18T17:00:39.721Z,11.60
2023-04-18T17:06:01.884Z,11.60
2023-04-18T17:11:23.766Z,12.10
2023-04-18T17:16:45.915Z,15.40
2023-04-18T17:22:08.126Z,15.80
2023-04-18T17:27:30.241Z,17.50
2023-04-18T17:32:52.960Z,10.70
2023-04-18T17:38:14.698Z,8.90
2023-04-18T17:43:36.955Z,14.40
2023-04-18T17:48:58.878Z,21.40
2023-04-18T17:54:20.907Z,14.60
2023-04-18T17:59:42.922Z,10.40
2023-04-18T18:05:05.671Z,7.80
2023-04-18T18:10:27.499Z,11.80
2023-04-18T18:15:49.527Z,11.50
2023-04-18T18:21:21.403Z,9.80
2023-04-18T18:26:43.239Z,10.40
2023-04-18T18:32:06.363Z,11.40
2023-04-18T18:37:28.416Z,11.60
2023-04-18T18:42:51.624Z,11.80
2023-04-18T18:48:14.807Z,12.30
2023-04-18T18:53:38.408Z,11.90
2023-04-18T18:59:01.849Z,11.70
2023-04-18T19:04:24.332Z,12.40
2023-04-18T19:09:47.097Z,15.00
2023-04-18T19:15:09.725Z,18.70
2023-04-18T19:20:31.850Z,17.70
2023-04-18T19:25:53.495Z,19.60
2023-04-18T19:31:15.544Z,24.50
2023-04-18T19:36:37.651Z,22.10
2023-04-18T19:41:59.363Z,23.60
2023-04-18T19:47:21.223Z,25.50
2023-04-18T19:52:43.253Z,27.60
2023-04-18T19:58:06.055Z,18.70
2023-04-18T20:03:27.936Z,19.80
2023-04-18T20:08:49.517Z,19.00
2023-04-18T20:14:14.450Z,18.00
2023-04-18T20:19:36.587Z,18.20
2023-04-18T20:24:58.508Z,17.00
2023-04-18T20:30:21.882Z,17.00
2023-04-18T20:35:44.680Z,16.10
2023-04-18T20:41:06.416Z,16.10
2023-04-18T20:46:28.473Z,15.60
2023-04-18T20:51:50.423Z,15.60
2023-04-18T20:57:12.229Z,14.70
2023-04-18T21:02:34.431Z,14.90
2023-04-18T21:07:56.193Z,18.80
2023-04-18T21:13:17.944Z,17.20
2023-04-18T21:18:39.713Z,15.30
2023-04-18T21:24:02.170Z,14.90
2023-04-18T21:29:23.985Z,14.60
2023-04-18T21:34:46.647Z,14.20
2023-04-18T21:40:09.273Z,14.60
2023-04-18T21:45:31.236Z,15.40
2023-04-18T21:50:56.192Z,15.10
2023-04-18T21:56:18.164Z,15.40
2023-04-18T22:01:39.997Z,14.90
2023-04-18T22:07:02.640Z,14.10
2023-04-18T22:12:24.721Z,14.40
2023-04-18T22:17:50.345Z,13.80
2023-04-18T22:23:12.460Z,13.70
2023-04-18T22:28:34.349Z,13.00
2023-04-18T22:33:56.224Z,13.50
2023-04-18T22:39:18.048Z,13.50
2023-04-18T22:44:40.538Z,13.40
2023-04-18T22:50:02.695Z,14.30
2023-04-18T22:55:27.448Z,14.40
2023-04-18T23:00:48.983Z,13.90
2023-04-18T23:06:10.774Z,14.30
2023-04-18T23:11:32.685Z,13.10
2023-04-18T23:16:54.431Z,16.00
2023-04-18T23:22:16.256Z,15.20
2023-04-18T23:27:38.220Z,15.10
2023-04-18T23:33:00.369Z,14.60
2023-04-18T23:38:22.365Z,13.50
2023-04-18T23:43:45.000Z,15.30
2023-04-18T23:49:06.505Z,15.60
2023-04-18T23:54:28.256Z,14.70
2023-04-18T23:59:50.134Z,14.40
